Aérodrome :
LOGIN :

S'inscrire | Disclaimer

   EN    FR    IT 

 










Légende :    VFR   VFR Marginal   IFR   IFR Intensif   IFR Très Intensif
Visi : 
Plafond : 
>= 8 km
>= 3000ft
5 à 8 km
1000 à 3000 ft
1500m à 5 km
500 à 1000 ft
800 à 1500m
200 à 500 ft
< 800m
< 200 ft
Symboles :   Orages  Brouillard  Fortes neiges  Fortes précipitations  Vent > 20 kt
SIGMETs :   Divers  Orages  Givrage  Turbulence  Onde Orograph.  Cendres Volcan.







- Altitude de l'aérodrome : 7 ft
- Code IATA : POW


LJPZ - Portoroz

DERNIER METAR :
  • 160830Z 12008KT CAVOK M00/M05 Q1020

METARs EXPIRÉS :
  • 160800Z 13008KT CAVOK M01/M05 Q1020
  • 160730Z 12008KT CAVOK M02/M06 Q1020
  • 160700Z 13010KT CAVOK M03/M06 Q1020
  • 160630Z 13010KT CAVOK M02/M06 Q1020
  • 160600Z 12010KT CAVOK M02/M06 Q1020

TAF TAF LJPZ
Valide du 16 à 09h jusqu'au 16 à 18h UTC


160800Z 1609/1618 12005KT CAVOK
TEMPO 1609/1618 BKN030
BECMG 1609/1611 24003KT
BECMG 1617/1618 12005KT
Pas de NOTAMs connus pour ce terrain.



MET'MAP, la Météo Aéronautique d'un coup d'oeil ! - Copyright ORBIFLY Décembre 2007 - Disclaimer

ORBIFLY MET'MAP TEAM :

Programmation & Développement : Alexandra Zaïnal
Conception & Développement : Baudouin d'Aumeries
Co-Programmation & Développement : Marc-Olivier Méhu
Soutien technique & logistique : Manuel Goepfert

Contact : metmap@orbifly.com




SOURCES & CREDITS :

   NOAA